createdAt,value
2019-02-27T00:06:47.909Z,98.82
2019-02-27T00:09:19.316Z,98.82
2019-02-27T00:11:50.614Z,98.78
2019-02-27T00:14:19.272Z,98.76
2019-02-27T00:16:51.145Z,98.81
2019-02-27T00:19:20.156Z,98.92
2019-02-27T00:21:52.071Z,99.21
2019-02-27T00:24:23.571Z,99.23
2019-02-27T00:26:55.235Z,99.39
2019-02-27T00:29:23.820Z,99.47
2019-02-27T00:31:57.860Z,99.46
2019-02-27T00:34:32.818Z,99.40
2019-02-27T00:37:02.059Z,99.30
2019-02-27T00:39:33.323Z,98.91
2019-02-27T00:42:05.375Z,98.38
2019-02-27T00:44:34.790Z,97.98
2019-02-27T00:47:06.096Z,97.50
2019-02-27T00:49:35.069Z,97.00
2019-02-27T00:52:03.621Z,96.82
2019-02-27T00:54:32.214Z,97.08
2019-02-27T00:57:04.073Z,97.29
2019-02-27T00:59:35.418Z,97.51
2019-02-27T01:02:07.140Z,97.57
2019-02-27T01:04:38.692Z,97.74
2019-02-27T01:07:07.251Z,97.33
2019-02-27T01:09:39.521Z,97.30
2019-02-27T01:12:11.713Z,96.97
2019-02-27T01:14:43.267Z,97.20
2019-02-27T01:17:14.956Z,97.90
2019-02-27T01:19:43.533Z,98.21
2019-02-27T01:22:12.095Z,98.48
2019-02-27T01:24:43.863Z,98.69
2019-02-27T01:27:15.192Z,98.66
2019-02-27T01:29:43.899Z,98.53
2019-02-27T01:32:15.180Z,98.13
2019-02-27T01:34:47.770Z,97.68
2019-02-27T01:37:19.172Z,97.52
2019-02-27T01:39:50.474Z,97.97
2019-02-27T01:42:19.040Z,98.34
2019-02-27T01:44:51.937Z,98.79
2019-02-27T01:47:23.521Z,99.27
2019-02-27T01:49:56.844Z,99.57
2019-02-27T01:52:33.976Z,99.91
2019-02-27T01:55:04.861Z,100.00
2019-02-27T01:57:36.816Z,100.00
2019-02-27T02:00:09.700Z,100.00
2019-02-27T02:02:40.462Z,100.00
2019-02-27T02:05:08.667Z,100.00
2019-02-27T02:07:40.161Z,100.00
2019-02-27T02:10:11.230Z,100.00
2019-02-27T02:12:43.180Z,100.00
2019-02-27T02:15:14.894Z,100.00
2019-02-27T02:18:01.360Z,100.00
2019-02-27T02:21:05.235Z,100.00
2019-02-27T02:23:59.881Z,100.00
2019-02-27T02:26:55.909Z,100.00
2019-02-27T02:30:01.147Z,100.00
2019-02-27T02:32:38.640Z,100.00
2019-02-27T02:35:19.040Z,100.00
2019-02-27T02:38:03.031Z,100.00
2019-02-27T02:40:58.980Z,100.00
2019-02-27T02:43:45.253Z,100.00
2019-02-27T02:46:22.820Z,100.00
2019-02-27T02:49:24.391Z,100.00
2019-02-27T02:52:15.167Z,100.00
2019-02-27T02:55:13.527Z,100.00
2019-02-27T02:58:11.404Z,100.00
2019-02-27T03:01:01.304Z,100.00
2019-02-27T03:03:38.848Z,100.00
2019-02-27T03:06:27.272Z,100.00
2019-02-27T03:09:30.636Z,100.00
2019-02-27T03:12:19.298Z,100.00
2019-02-27T03:15:19.402Z,100.00
2019-02-27T03:18:14.029Z,100.00
2019-02-27T03:20:52.470Z,100.00
2019-02-27T03:23:58.006Z,100.00
2019-02-27T03:27:03.594Z,100.00
2019-02-27T03:29:51.980Z,100.00
2019-02-27T03:32:54.140Z,100.00
2019-02-27T03:35:37.775Z,100.00
2019-02-27T03:38:24.820Z,100.00
2019-02-27T03:41:02.217Z,100.00
2019-02-27T03:43:54.805Z,100.00
2019-02-27T03:46:42.004Z,100.00
2019-02-27T03:49:39.758Z,100.00
2019-02-27T03:52:36.551Z,100.00
2019-02-27T03:55:15.948Z,100.00
2019-02-27T03:57:56.883Z,100.00
2019-02-27T04:00:31.341Z,100.00
2019-02-27T04:03:17.083Z,100.00
2019-02-27T04:05:50.803Z,100.00
2019-02-27T04:08:28.221Z,100.00
2019-02-27T04:10:57.444Z,100.00
2019-02-27T04:13:29.409Z,100.00
2019-02-27T04:15:59.542Z,100.00
2019-02-27T04:18:32.829Z,100.00
2019-02-27T04:21:01.418Z,100.00
2019-02-27T04:23:30.311Z,100.00
2019-02-27T04:25:58.876Z,100.00
2019-02-27T04:28:29.958Z,100.00
2019-02-27T04:31:02.143Z,100.00
2019-02-27T04:33:30.735Z,100.00
2019-02-27T04:35:59.302Z,100.00
2019-02-27T04:38:30.996Z,100.00
2019-02-27T04:40:59.907Z,100.00
2019-02-27T04:43:32.180Z,100.00
2019-02-27T04:46:01.360Z,100.00
2019-02-27T04:48:32.910Z,100.00
2019-02-27T04:51:01.496Z,100.00
2019-02-27T04:53:32.781Z,100.00
2019-02-27T04:56:01.348Z,100.00
2019-02-27T04:58:32.880Z,100.00
2019-02-27T05:01:04.408Z,100.00
2019-02-27T05:03:32.976Z,100.00
2019-02-27T05:06:01.560Z,100.00
2019-02-27T05:08:30.169Z,100.00
2019-02-27T05:10:58.750Z,100.00
2019-02-27T05:13:30.057Z,100.00
2019-02-27T05:16:01.506Z,100.00
2019-02-27T05:18:33.093Z,100.00
2019-02-27T05:21:04.359Z,100.00
2019-02-27T05:23:35.801Z,100.00
2019-02-27T05:26:07.148Z,100.00
2019-02-27T05:28:36.126Z,100.00
2019-02-27T05:31:07.887Z,100.00
2019-02-27T05:33:39.882Z,100.00
2019-02-27T05:36:08.616Z,99.86
2019-02-27T05:38:41.010Z,99.48
2019-02-27T05:41:10.350Z,99.30
2019-02-27T05:43:38.950Z,99.24
2019-02-27T05:46:07.522Z,99.48
2019-02-27T05:48:39.434Z,99.92
2019-02-27T05:51:10.899Z,100.00
2019-02-27T05:53:39.486Z,100.00
2019-02-27T05:56:15.565Z,100.00
2019-02-27T05:58:44.572Z,100.00
2019-02-27T06:01:13.155Z,100.00
2019-02-27T06:03:44.530Z,100.00
2019-02-27T06:06:15.971Z,100.00
2019-02-27T06:08:44.580Z,100.00
2019-02-27T06:11:15.911Z,100.00
2019-02-27T06:13:48.236Z,100.00
2019-02-27T06:16:17.153Z,100.00
2019-02-27T06:18:48.583Z,100.00
2019-02-27T06:21:17.152Z,100.00
2019-02-27T06:23:48.769Z,100.00
2019-02-27T06:26:17.338Z,100.00
2019-02-27T06:28:45.951Z,100.00
2019-02-27T06:31:17.690Z,100.00
2019-02-27T06:33:49.235Z,100.00
2019-02-27T06:36:20.727Z,100.00
2019-02-27T06:38:52.665Z,100.00
2019-02-27T06:41:24.022Z,100.00
2019-02-27T06:43:55.906Z,100.00
2019-02-27T06:46:28.704Z,100.00
2019-02-27T06:49:00.196Z,100.00
2019-02-27T06:51:28.776Z,100.00
2019-02-27T06:54:00.306Z,100.00
2019-02-27T06:56:32.120Z,100.00
2019-02-27T06:59:00.748Z,100.00
2019-02-27T07:01:29.312Z,100.00
2019-02-27T07:04:02.243Z,100.00
2019-02-27T07:06:31.192Z,100.00
2019-02-27T07:08:59.778Z,100.00
2019-02-27T07:11:28.356Z,100.00
2019-02-27T07:13:56.952Z,100.00
2019-02-27T07:16:26.014Z,100.00
2019-02-27T07:19:13.160Z,100.00
2019-02-27T07:21:42.412Z,100.00
2019-02-27T07:24:11.005Z,100.00
2019-02-27T07:26:42.250Z,100.00
2019-02-27T07:29:10.844Z,99.99
2019-02-27T07:31:42.530Z,99.79
2019-02-27T07:34:14.896Z,99.62
2019-02-27T07:36:43.571Z,99.50
2019-02-27T07:39:12.124Z,99.32
2019-02-27T07:41:43.678Z,99.09
2019-02-27T07:44:12.229Z,98.86
2019-02-27T07:46:43.539Z,98.66
2019-02-27T07:49:15.073Z,98.26
2019-02-27T07:51:43.660Z,97.94
2019-02-27T07:54:12.580Z,97.72
2019-02-27T07:56:44.156Z,97.82
2019-02-27T07:59:15.377Z,97.94
2019-02-27T08:01:44.250Z,97.64
2019-02-27T08:04:19.041Z,97.20
2019-02-27T08:06:46.544Z,96.95
2019-02-27T08:09:18.018Z,96.69
2019-02-27T08:11:49.871Z,96.56
2019-02-27T08:14:21.398Z,96.68
2019-02-27T08:16:57.177Z,96.73
2019-02-27T08:19:26.309Z,96.90
2019-02-27T08:22:01.254Z,96.40
2019-02-27T08:24:33.784Z,96.13
2019-02-27T08:27:02.889Z,95.84
2019-02-27T08:29:31.830Z,94.92
2019-02-27T08:32:05.348Z,94.53
2019-02-27T08:34:33.511Z,94.40
2019-02-27T08:37:04.957Z,94.22
2019-02-27T08:39:36.506Z,93.79
2019-02-27T08:42:07.781Z,93.38
2019-02-27T08:44:39.307Z,93.01
2019-02-27T08:47:11.015Z,92.85
2019-02-27T08:49:39.575Z,90.55
2019-02-27T08:52:08.564Z,90.55
2019-02-27T08:54:40.041Z,90.24
2019-02-27T08:57:11.321Z,90.24
2019-02-27T08:59:42.762Z,86.57
2019-02-27T09:02:11.412Z,85.11
2019-02-27T09:04:45.530Z,85.11
2019-02-27T09:07:16.377Z,83.45
2019-02-27T09:09:51.192Z,82.74
2019-02-27T09:12:18.201Z,81.40
2019-02-27T09:14:50.448Z,81.40
2019-02-27T09:17:22.024Z,80.98
2019-02-27T09:19:53.365Z,79.96
2019-02-27T09:22:25.019Z,80.95
2019-02-27T09:24:57.244Z,80.30
2019-02-27T09:27:25.871Z,80.33
2019-02-27T09:29:55.345Z,79.26
2019-02-27T09:32:27.137Z,77.42
2019-02-27T09:34:59.609Z,78.52
2019-02-27T09:37:31.919Z,74.53
2019-02-27T09:40:05.867Z,72.80
2019-02-27T09:42:34.691Z,73.27
2019-02-27T09:45:03.318Z,72.34
2019-02-27T09:47:31.885Z,68.05
2019-02-27T09:50:03.567Z,69.62
2019-02-27T09:52:35.044Z,68.82
2019-02-27T09:55:07.105Z,65.86
2019-02-27T09:57:38.609Z,64.59
2019-02-27T10:00:29.882Z,65.50
2019-02-27T10:03:02.029Z,62.55
2019-02-27T10:05:31.028Z,62.68
2019-02-27T10:07:59.895Z,61.68
2019-02-27T10:10:31.250Z,60.51
2019-02-27T10:12:59.971Z,59.24
2019-02-27T10:15:28.647Z,58.50
2019-02-27T10:17:59.150Z,59.43
2019-02-27T10:20:30.555Z,58.25
2019-02-27T10:22:59.320Z,58.48
2019-02-27T10:25:30.945Z,56.24
2019-02-27T10:28:03.436Z,54.99
2019-02-27T10:30:30.125Z,55.50
2019-02-27T10:32:58.737Z,54.98
2019-02-27T10:35:30.603Z,54.88
2019-02-27T10:37:59.179Z,56.23
2019-02-27T10:40:31.004Z,54.73
2019-02-27T10:42:59.566Z,54.12
2019-02-27T10:45:34.238Z,56.22
2019-02-27T10:48:05.691Z,53.04
2019-02-27T10:50:37.363Z,51.18
2019-02-27T10:53:08.867Z,51.09
2019-02-27T10:55:41.339Z,50.88
2019-02-27T10:58:12.716Z,50.52
2019-02-27T11:00:41.595Z,51.29
2019-02-27T11:03:13.112Z,50.51
2019-02-27T11:05:41.759Z,51.10
2019-02-27T11:08:13.402Z,52.25
2019-02-27T11:10:42.046Z,50.80
2019-02-27T11:13:13.644Z,50.34
2019-02-27T11:15:44.556Z,48.72
2019-02-27T11:18:12.521Z,49.58
2019-02-27T11:20:44.067Z,49.27
2019-02-27T11:23:12.644Z,48.29
2019-02-27T11:25:44.034Z,48.57
2019-02-27T11:28:15.546Z,48.38
2019-02-27T11:30:44.427Z,48.54
2019-02-27T11:33:24.717Z,48.33
2019-02-27T11:35:43.478Z,48.43
2019-02-27T11:38:12.395Z,48.38
2019-02-27T11:40:43.895Z,50.34
2019-02-27T11:43:12.522Z,48.62
2019-02-27T11:45:41.182Z,49.98
2019-02-27T11:48:10.089Z,48.49
2019-02-27T11:50:41.673Z,48.73
2019-02-27T11:53:13.308Z,47.10
2019-02-27T11:55:47.068Z,49.75
2019-02-27T11:58:18.397Z,47.10
2019-02-27T12:00:49.803Z,49.50
2019-02-27T12:03:18.740Z,45.69
2019-02-27T12:05:47.756Z,46.81
2019-02-27T12:08:19.087Z,47.97
2019-02-27T12:10:50.610Z,47.28
2019-02-27T12:13:19.525Z,45.87
2019-02-27T12:15:48.121Z,46.64
2019-02-27T12:18:19.440Z,46.76
2019-02-27T12:20:48.088Z,44.44
2019-02-27T12:23:16.647Z,45.83
2019-02-27T12:25:47.959Z,46.82
2019-02-27T12:28:19.642Z,44.95
2019-02-27T12:30:48.978Z,41.18
2019-02-27T12:33:20.619Z,41.08
2019-02-27T12:35:49.373Z,43.19
2019-02-27T12:38:21.111Z,42.45
2019-02-27T12:40:52.622Z,42.26
2019-02-27T12:43:24.438Z,42.02
2019-02-27T12:45:53.015Z,40.78
2019-02-27T12:48:24.550Z,42.79
2019-02-27T12:50:56.394Z,43.10
2019-02-27T12:53:26.950Z,43.53
2019-02-27T12:56:01.003Z,41.06
2019-02-27T12:58:32.308Z,40.05
2019-02-27T13:01:04.824Z,40.39
2019-02-27T13:03:33.371Z,39.98
2019-02-27T13:06:05.619Z,40.99
2019-02-27T13:08:37.316Z,37.94
2019-02-27T13:11:09.021Z,35.24
2019-02-27T13:13:40.415Z,34.78
2019-02-27T13:16:14.307Z,36.71
2019-02-27T13:18:42.173Z,36.98
2019-02-27T13:21:10.786Z,34.78
2019-02-27T13:23:42.415Z,32.79
2019-02-27T13:26:13.785Z,33.33
2019-02-27T13:28:42.342Z,33.68
2019-02-27T13:31:13.664Z,33.21
2019-02-27T13:33:45.116Z,32.52
2019-02-27T13:36:16.580Z,33.15
2019-02-27T13:38:49.564Z,32.38
2019-02-27T13:41:21.501Z,32.84
2019-02-27T13:43:50.386Z,33.11
2019-02-27T13:46:22.749Z,34.21
2019-02-27T13:48:54.397Z,31.77
2019-02-27T13:51:27.622Z,31.61
2019-02-27T13:54:00.538Z,31.59
2019-02-27T13:56:34.102Z,31.47
2019-02-27T13:59:02.673Z,32.63
2019-02-27T14:01:34.251Z,32.59
2019-02-27T14:04:05.612Z,31.97
2019-02-27T14:06:34.171Z,31.72
2019-02-27T14:09:08.672Z,31.88
2019-02-27T14:11:40.710Z,31.82
2019-02-27T14:14:09.413Z,31.73
2019-02-27T14:16:37.960Z,30.79
2019-02-27T14:19:06.627Z,30.97
2019-02-27T14:21:36.153Z,31.10
2019-02-27T14:24:04.994Z,31.93
2019-02-27T14:26:38.277Z,33.43
2019-02-27T14:29:07.702Z,32.05
2019-02-27T14:31:36.901Z,32.45
2019-02-27T14:34:08.193Z,32.40
2019-02-27T14:36:39.392Z,32.08
2019-02-27T14:39:08.720Z,31.98
2019-02-27T14:41:40.088Z,32.12
2019-02-27T14:44:08.674Z,31.55
2019-02-27T14:46:37.244Z,32.48
2019-02-27T14:49:08.543Z,33.19
2019-02-27T14:51:41.174Z,33.16
2019-02-27T14:54:10.722Z,32.24
2019-02-27T14:56:42.709Z,33.31
2019-02-27T14:59:14.063Z,32.33
2019-02-27T15:01:48.634Z,33.05
2019-02-27T15:04:18.583Z,32.67
2019-02-27T15:06:51.263Z,33.09
2019-02-27T15:09:23.123Z,33.34
2019-02-27T15:11:54.406Z,33.64
2019-02-27T15:14:31.064Z,34.41
2019-02-27T15:17:01.340Z,34.48
2019-02-27T15:19:30.661Z,34.17
2019-02-27T15:22:02.372Z,34.67
2019-02-27T15:24:34.779Z,34.85
2019-02-27T15:27:06.926Z,34.74
2019-02-27T15:29:39.580Z,35.98
2019-02-27T15:32:08.987Z,35.55
2019-02-27T15:34:37.882Z,35.59
2019-02-27T15:37:09.141Z,36.43
2019-02-27T15:39:41.222Z,35.95
2019-02-27T15:42:12.468Z,36.17
2019-02-27T15:44:43.778Z,35.62
2019-02-27T15:47:15.602Z,36.46
2019-02-27T15:49:46.112Z,36.02
2019-02-27T15:52:17.459Z,36.74
2019-02-27T15:54:48.913Z,36.87
2019-02-27T15:57:20.192Z,36.71
2019-02-27T15:59:51.492Z,37.35
2019-02-27T16:02:23.201Z,37.52
2019-02-27T16:04:55.153Z,38.26
2019-02-27T16:07:22.090Z,37.49
2019-02-27T16:09:53.863Z,38.21
2019-02-27T16:12:25.947Z,38.84
2019-02-27T16:14:56.911Z,38.58
2019-02-27T16:17:30.956Z,39.41
2019-02-27T16:19:58.656Z,39.61
2019-02-27T16:22:31.510Z,40.39
2019-02-27T16:25:00.237Z,40.14
2019-02-27T16:27:29.163Z,40.41
2019-02-27T16:29:59.266Z,40.72
2019-02-27T16:32:29.375Z,41.44
2019-02-27T16:34:59.233Z,41.73
2019-02-27T16:37:31.489Z,41.65
2019-02-27T16:40:00.151Z,41.82
2019-02-27T16:42:28.884Z,41.57
2019-02-27T16:45:00.453Z,42.20
2019-02-27T16:47:29.021Z,41.85
2019-02-27T16:49:57.614Z,42.08
2019-02-27T16:52:29.122Z,41.49
2019-02-27T16:55:01.465Z,41.68
2019-02-27T16:57:31.164Z,42.21
2019-02-27T17:00:02.516Z,41.99
2019-02-27T17:02:35.497Z,41.96
2019-02-27T17:05:08.814Z,42.23
2019-02-27T17:07:36.128Z,42.35
2019-02-27T17:10:10.845Z,42.14
2019-02-27T17:12:42.237Z,42.32
2019-02-27T17:15:10.900Z,43.26
2019-02-27T17:17:39.534Z,43.11
2019-02-27T17:20:12.763Z,43.17
2019-02-27T17:22:44.330Z,42.90
2019-02-27T17:25:14.815Z,43.26
2019-02-27T17:27:49.962Z,44.22
2019-02-27T17:30:18.974Z,45.10
2019-02-27T17:32:47.777Z,46.09
2019-02-27T17:35:16.365Z,46.97
2019-02-27T17:37:47.669Z,48.10
2019-02-27T17:40:19.582Z,48.07
2019-02-27T17:42:53.135Z,47.19
2019-02-27T17:45:26.980Z,46.96
2019-02-27T17:47:56.006Z,47.10
2019-02-27T17:50:24.751Z,47.86
2019-02-27T17:52:53.440Z,47.75
2019-02-27T17:55:22.025Z,47.88
2019-02-27T17:57:57.707Z,47.71
2019-02-27T18:00:29.745Z,48.12
2019-02-27T18:02:59.077Z,48.81
2019-02-27T18:05:28.373Z,49.93
2019-02-27T18:07:57.041Z,50.83
2019-02-27T18:10:28.638Z,51.80
2019-02-27T18:13:01.403Z,52.23
2019-02-27T18:15:30.892Z,52.04
2019-02-27T18:18:02.492Z,52.04
2019-02-27T18:20:32.144Z,51.91
2019-02-27T18:23:00.837Z,51.65
2019-02-27T18:25:29.424Z,51.54
2019-02-27T18:28:00.787Z,51.97
2019-02-27T18:30:29.828Z,51.88
2019-02-27T18:33:01.003Z,51.71
2019-02-27T18:35:31.975Z,51.64
2019-02-27T18:38:00.541Z,51.69
2019-02-27T18:40:29.094Z,51.94
2019-02-27T18:43:00.735Z,52.40
2019-02-27T18:45:29.852Z,52.72
2019-02-27T18:48:01.135Z,52.91
2019-02-27T18:50:29.759Z,52.90
2019-02-27T18:53:01.316Z,53.12
2019-02-27T18:55:31.387Z,53.20
2019-02-27T18:58:00.283Z,53.17
2019-02-27T19:00:33.436Z,53.16
2019-02-27T19:03:06.277Z,53.18
2019-02-27T19:05:38.156Z,53.42
2019-02-27T19:08:07.298Z,53.79
2019-02-27T19:10:41.401Z,54.09
2019-02-27T19:13:11.003Z,54.23
2019-02-27T19:15:45.317Z,54.36
2019-02-27T19:18:11.228Z,54.57
2019-02-27T19:20:45.194Z,55.23
2019-02-27T19:23:17.332Z,54.76
2019-02-27T19:25:45.619Z,55.05
2019-02-27T19:28:14.814Z,54.75
2019-02-27T19:30:44.001Z,55.05
2019-02-27T19:33:13.934Z,55.31
2019-02-27T19:35:43.475Z,55.30
2019-02-27T19:38:13.638Z,55.46
2019-02-27T19:40:42.911Z,55.57
2019-02-27T19:43:14.539Z,55.13
2019-02-27T19:45:43.767Z,55.56
2019-02-27T19:48:15.758Z,55.20
2019-02-27T19:50:47.339Z,55.25
2019-02-27T19:53:19.346Z,55.74
2019-02-27T19:55:51.572Z,55.97
2019-02-27T19:58:23.244Z,56.34
2019-02-27T20:00:54.592Z,56.39
2019-02-27T20:03:29.321Z,55.99
2019-02-27T20:06:01.439Z,56.08
2019-02-27T20:08:30.090Z,56.15
2019-02-27T20:10:58.741Z,55.96
2019-02-27T20:13:29.999Z,55.82
2019-02-27T20:16:01.365Z,55.82
2019-02-27T20:18:32.893Z,56.45
2019-02-27T20:21:01.495Z,56.39
2019-02-27T20:23:30.186Z,56.47
2019-02-27T20:25:58.836Z,56.64
2019-02-27T20:28:31.822Z,57.04
2019-02-27T20:35:20.680Z,57.54
2019-02-27T20:37:06.479Z,57.59
2019-02-27T20:39:35.957Z,57.81
2019-02-27T20:42:05.784Z,58.00
2019-02-27T20:44:37.369Z,58.44
2019-02-27T20:47:04.961Z,58.20
2019-02-27T20:49:33.621Z,58.33
2019-02-27T20:52:02.259Z,59.12
2019-02-27T20:54:33.591Z,58.97
2019-02-27T20:57:02.158Z,59.10
2019-02-27T20:59:30.818Z,58.83
2019-02-27T21:01:59.553Z,59.09
2019-02-27T21:04:32.330Z,58.84
2019-02-27T21:07:01.297Z,59.17
2019-02-27T21:09:30.668Z,58.83
2019-02-27T21:12:03.512Z,58.68
2019-02-27T21:14:29.609Z,59.04
2019-02-27T21:17:01.077Z,58.55
2019-02-27T21:19:33.871Z,58.96
2019-02-27T21:22:03.555Z,58.69
2019-02-27T21:24:32.124Z,58.51
2019-02-27T21:27:00.847Z,58.60
2019-02-27T21:29:29.547Z,59.08
2019-02-27T21:32:01.502Z,59.50
2019-02-27T21:34:29.599Z,59.59
2019-02-27T21:37:01.311Z,59.84
2019-02-27T21:39:29.916Z,60.17
2019-02-27T21:41:58.481Z,60.00
2019-02-27T21:44:29.210Z,60.10
2019-02-27T21:46:58.371Z,60.24
2019-02-27T21:49:31.832Z,60.19
2019-02-27T21:51:58.868Z,59.78
2019-02-27T21:54:30.377Z,59.73
2019-02-27T21:56:59.439Z,59.64
2019-02-27T21:59:30.195Z,59.90
2019-02-27T22:02:03.844Z,59.26
2019-02-27T22:05:42.810Z,59.31
2019-02-27T22:07:17.851Z,59.18
2019-02-27T22:12:27.233Z,59.30
2019-02-27T22:15:00.291Z,58.87
2019-02-27T22:17:29.188Z,58.73
2019-02-27T22:20:19.915Z,58.58
2019-02-27T22:26:58.777Z,58.92
2019-02-27T22:34:33.026Z,57.37
2019-02-27T22:36:47.640Z,56.91
2019-02-27T22:41:10.095Z,56.84
2019-02-27T22:44:46.025Z,57.31
2019-02-27T22:47:21.474Z,56.97
2019-02-27T22:51:38.532Z,56.26
2019-02-27T22:52:47.723Z,56.56
2019-02-27T22:55:43.136Z,56.75
2019-02-27T22:58:28.299Z,56.74
2019-02-27T23:01:14.909Z,56.54
2019-02-27T23:03:55.016Z,56.07
2019-02-27T23:06:32.953Z,56.27
2019-02-27T23:09:01.540Z,56.76
2019-02-27T23:11:39.715Z,56.23
2019-02-27T23:14:11.489Z,56.11
2019-02-27T23:16:43.394Z,56.19
2019-02-27T23:19:14.661Z,56.65
2019-02-27T23:21:46.035Z,56.97
2019-02-27T23:24:17.685Z,57.07
2019-02-27T23:26:46.341Z,57.41
2019-02-27T23:29:14.893Z,57.33
2019-02-27T23:31:43.546Z,57.13
2019-02-27T23:34:15.061Z,57.35
2019-02-27T23:36:46.737Z,57.67
2019-02-27T23:39:18.175Z,58.37
2019-02-27T23:41:49.496Z,58.00
2019-02-27T23:44:20.738Z,58.59
2019-02-27T23:46:57.239Z,58.16
2019-02-27T23:49:26.335Z,58.56
2019-02-27T23:51:57.763Z,59.21
2019-02-27T23:54:28.429Z,59.38
2019-02-27T23:56:57.014Z,59.80
2019-02-27T23:59:28.513Z,59.70
